createdAt,value
2023-07-28T00:01:16.597Z,100298.81
2023-07-28T00:03:44.239Z,100307.66
2023-07-28T00:06:11.469Z,100309.25
2023-07-28T00:08:39.048Z,100303.09
2023-07-28T00:11:11.225Z,100297.09
2023-07-28T00:13:38.332Z,100304.97
2023-07-28T00:16:07.606Z,100297.97
2023-07-28T00:18:35.864Z,100298.81
2023-07-28T00:21:03.186Z,100298.81
2023-07-28T00:23:30.228Z,100299.75
2023-07-28T00:25:57.653Z,100293.69
2023-07-28T00:28:24.803Z,100285.59
2023-07-28T00:30:51.985Z,100296.28
2023-07-28T00:33:19.374Z,100286.56
2023-07-28T00:35:46.915Z,100288.41
2023-07-28T00:38:13.907Z,100283.13
2023-07-28T00:40:40.906Z,100291.00
2023-07-28T00:43:08.338Z,100287.38
2023-07-28T00:45:36.966Z,100291.69
2023-07-28T00:48:05.372Z,100289.00
2023-07-28T00:50:32.925Z,100286.31
2023-07-28T00:53:00.163Z,100286.56
2023-07-28T00:55:27.702Z,100281.28
2023-07-28T00:57:54.640Z,100289.13
2023-07-28T01:00:21.535Z,100284.59
2023-07-28T01:02:48.474Z,100281.16
2023-07-28T01:05:16.880Z,100286.41
2023-07-28T01:07:48.453Z,100288.16
2023-07-28T01:10:33.945Z,100290.88
2023-07-28T01:13:01.246Z,100291.69
2023-07-28T01:15:28.541Z,100288.16
2023-07-28T01:17:56.490Z,100286.31
2023-07-28T01:20:28.753Z,100294.41
2023-07-28T01:23:10.395Z,100297.97
2023-07-28T01:25:59.225Z,100284.72
2023-07-28T01:28:27.212Z,100290.00
2023-07-28T01:30:54.294Z,100290.88
2023-07-28T01:33:21.374Z,100290.88
2023-07-28T01:35:48.122Z,100290.00
2023-07-28T01:38:15.186Z,100286.50
2023-07-28T01:40:42.295Z,100286.56
2023-07-28T01:43:09.522Z,100275.09
2023-07-28T01:45:36.612Z,100283.78
2023-07-28T01:48:04.150Z,100289.88
2023-07-28T01:50:31.128Z,100284.59
2023-07-28T01:52:58.791Z,100284.72
2023-07-28T01:55:26.315Z,100278.50
2023-07-28T01:58:01.429Z,100291.69
2023-07-28T02:00:28.923Z,100288.22
2023-07-28T02:02:56.621Z,100290.00
2023-07-28T02:05:24.337Z,100279.44
2023-07-28T02:07:51.424Z,100286.41
2023-07-28T02:10:18.713Z,100276.72
2023-07-28T02:12:45.881Z,100277.59
2023-07-28T02:15:13.658Z,100277.59
2023-07-28T02:17:40.777Z,100280.09
2023-07-28T02:20:11.620Z,100282.72
2023-07-28T02:22:39.010Z,100290.66
2023-07-28T02:25:06.421Z,100291.59
2023-07-28T02:27:33.104Z,100289.72
2023-07-28T02:30:00.542Z,100295.88
2023-07-28T02:32:29.737Z,100294.03
2023-07-28T02:34:56.968Z,100293.91
2023-07-28T02:37:25.967Z,100296.72
2023-07-28T02:39:53.487Z,100299.38
2023-07-28T02:42:20.574Z,100301.09
2023-07-28T02:44:47.810Z,100309.00
2023-07-28T02:47:15.245Z,100309.00
2023-07-28T02:49:42.320Z,100310.75
2023-07-28T02:52:09.474Z,100307.19
2023-07-28T02:54:36.370Z,100315.88
2023-07-28T02:57:03.812Z,100313.28
2023-07-28T02:59:30.920Z,100321.09
2023-07-28T03:01:58.705Z,100319.44
2023-07-28T03:04:26.430Z,100315.88
2023-07-28T03:06:53.607Z,100325.53
2023-07-28T03:09:20.695Z,100326.44
2023-07-28T03:11:48.378Z,100323.00
2023-07-28T03:14:15.346Z,100329.97
2023-07-28T03:16:43.254Z,100328.28
2023-07-28T03:19:10.143Z,100316.88
2023-07-28T03:21:39.902Z,100324.72
2023-07-28T03:24:07.475Z,100321.28
2023-07-28T03:26:35.455Z,100319.56
2023-07-28T03:29:03.308Z,100326.44
2023-07-28T03:31:30.115Z,100331.72
2023-07-28T03:33:57.278Z,100328.16
2023-07-28T03:36:24.489Z,100328.16
2023-07-28T03:38:51.879Z,100329.84
2023-07-28T03:41:19.008Z,100327.16
2023-07-28T03:43:47.180Z,100332.50
2023-07-28T03:46:14.161Z,100339.56
2023-07-28T03:48:41.092Z,100336.97
2023-07-28T03:51:07.944Z,100338.72
2023-07-28T03:53:36.397Z,100340.41
2023-07-28T03:56:04.103Z,100339.63
2023-07-28T03:58:31.073Z,100344.91
2023-07-28T04:00:58.169Z,100340.47
2023-07-28T04:03:25.412Z,100347.53
2023-07-28T04:05:52.100Z,100350.97
2023-07-28T04:08:19.052Z,100350.13
2023-07-28T04:10:45.953Z,100338.72
2023-07-28T04:13:13.836Z,100334.28
2023-07-28T04:15:40.820Z,100331.56
2023-07-28T04:18:08.137Z,100338.56
2023-07-28T04:20:35.892Z,100336.72
2023-07-28T04:23:03.060Z,100332.34
2023-07-28T04:25:30.033Z,100345.41
2023-07-28T04:27:57.692Z,100341.84
2023-07-28T04:30:25.719Z,100340.03
2023-07-28T04:32:52.817Z,100347.00
2023-07-28T04:35:19.950Z,100344.22
2023-07-28T04:37:46.950Z,100343.31
2023-07-28T04:40:16.251Z,100346.72
2023-07-28T04:42:44.763Z,100347.47
2023-07-28T04:45:11.710Z,100352.81
2023-07-28T04:47:38.310Z,100360.59
2023-07-28T04:50:06.349Z,100367.72
2023-07-28T04:52:33.385Z,100353.75
2023-07-28T04:55:00.466Z,100353.75
2023-07-28T04:57:27.240Z,100357.03
2023-07-28T04:59:54.251Z,100351.75
2023-07-28T05:02:21.404Z,100348.19
2023-07-28T05:04:48.655Z,100351.59
2023-07-28T05:07:15.610Z,100355.91
2023-07-28T05:09:42.658Z,100352.19
2023-07-28T05:12:10.146Z,100359.28
2023-07-28T05:14:37.081Z,100363.63
2023-07-28T05:17:04.432Z,100363.47
2023-07-28T05:19:31.136Z,100363.47
2023-07-28T05:21:58.390Z,100359.16
2023-07-28T05:24:25.197Z,100365.94
2023-07-28T05:26:52.300Z,100377.22
2023-07-28T05:29:19.105Z,100371.94
2023-07-28T05:31:48.050Z,100371.94
2023-07-28T05:34:15.214Z,100376.28
2023-07-28T05:36:42.150Z,100379.03
2023-07-28T05:39:08.908Z,100374.72
2023-07-28T05:41:38.489Z,100383.63
2023-07-28T05:44:06.051Z,100388.03
2023-07-28T05:46:33.505Z,100393.19
2023-07-28T05:49:00.817Z,100387.78
2023-07-28T05:51:28.283Z,100397.28
2023-07-28T05:53:55.945Z,100391.88
2023-07-28T05:56:23.859Z,100390.78
2023-07-28T05:58:52.903Z,100394.22
2023-07-28T06:01:20.792Z,100399.38
2023-07-28T06:03:47.849Z,100398.50
2023-07-28T06:06:14.991Z,100398.50
2023-07-28T06:08:42.242Z,100406.50
2023-07-28T06:11:09.074Z,100404.66
2023-07-28T06:13:36.751Z,100412.44
2023-07-28T06:16:05.272Z,100409.66
2023-07-28T06:18:31.882Z,100416.63
2023-07-28T06:20:58.896Z,100416.53
2023-07-28T06:23:26.992Z,100412.34
2023-07-28T06:25:56.031Z,100420.09
2023-07-28T06:28:23.761Z,100415.53
2023-07-28T06:30:58.248Z,100426.16
2023-07-28T06:33:26.607Z,100429.59
2023-07-28T06:35:53.961Z,100424.97
2023-07-28T06:38:21.299Z,100428.50
2023-07-28T06:40:49.089Z,100414.38
2023-07-28T06:43:15.816Z,100419.25
2023-07-28T06:45:44.194Z,100424.44
2023-07-28T06:48:11.163Z,100427.75
2023-07-28T06:50:37.817Z,100429.28
2023-07-28T06:53:06.009Z,100436.44
2023-07-28T06:55:33.195Z,100441.31
2023-07-28T06:58:00.270Z,100433.91
2023-07-28T07:00:27.664Z,100440.88
2023-07-28T07:02:54.794Z,100433.75
2023-07-28T07:05:21.882Z,100445.63
2023-07-28T07:07:49.092Z,100448.75
2023-07-28T07:10:17.786Z,100452.00
2023-07-28T07:12:45.039Z,100448.16
2023-07-28T07:15:12.914Z,100452.44
2023-07-28T07:17:41.032Z,100449.44
2023-07-28T07:20:08.559Z,100457.06
2023-07-28T07:22:36.927Z,100462.88
2023-07-28T07:25:05.241Z,100457.72
2023-07-28T07:27:32.733Z,100463.94
2023-07-28T07:30:00.130Z,100457.34
2023-07-28T07:32:27.836Z,100464.31
2023-07-28T07:34:54.931Z,100461.88
2023-07-28T07:37:21.736Z,100464.41
2023-07-28T07:39:48.623Z,100471.31
2023-07-28T07:42:15.920Z,100471.31
2023-07-28T07:44:43.286Z,100471.31
2023-07-28T07:47:16.968Z,100476.47
2023-07-28T07:49:44.909Z,100476.25
2023-07-28T07:52:12.160Z,100475.09
2023-07-28T07:54:39.408Z,100481.16
2023-07-28T07:57:07.477Z,100481.00
2023-07-28T07:59:36.410Z,100478.84
2023-07-28T08:02:04.608Z,100487.41
2023-07-28T08:04:32.616Z,100482.25
2023-07-28T08:06:59.913Z,100484.84
2023-07-28T08:09:27.040Z,100483.69
2023-07-28T08:11:55.402Z,100478.06
2023-07-28T08:14:22.438Z,100486.50
2023-07-28T08:16:50.054Z,100487.34
2023-07-28T08:19:17.403Z,100487.13
2023-07-28T08:21:44.458Z,100481.66
2023-07-28T08:24:12.904Z,100482.38
2023-07-28T08:26:39.964Z,100488.59
2023-07-28T08:29:07.223Z,100495.91
2023-07-28T08:31:34.598Z,100498.13
2023-07-28T08:34:02.250Z,100499.22
2023-07-28T08:36:29.026Z,100506.28
2023-07-28T08:38:56.860Z,100503.19
2023-07-28T08:41:24.466Z,100506.88
2023-07-28T08:43:52.310Z,100518.44
2023-07-28T08:46:21.122Z,100520.94
2023-07-28T08:48:48.668Z,100509.28
2023-07-28T08:51:16.838Z,100515.97
2023-07-28T08:53:44.246Z,100517.69
2023-07-28T08:56:11.153Z,100519.63
2023-07-28T08:58:38.528Z,100525.44
2023-07-28T09:01:06.560Z,100524.06
2023-07-28T09:03:38.464Z,100519.59
2023-07-28T09:06:09.486Z,100513.47
2023-07-28T09:08:37.781Z,100515.31
2023-07-28T09:11:06.980Z,100522.50
2023-07-28T09:13:40.029Z,100522.97
2023-07-28T09:16:17.737Z,100527.63
2023-07-28T09:18:44.914Z,100521.25
2023-07-28T09:21:21.856Z,100515.00
2023-07-28T09:23:49.501Z,100520.66
2023-07-28T09:26:17.969Z,100527.81
2023-07-28T09:28:45.262Z,100524.22
2023-07-28T09:31:12.794Z,100512.16
2023-07-28T09:33:47.567Z,100520.13
2023-07-28T09:36:18.827Z,100521.09
2023-07-28T09:38:46.407Z,100517.03
2023-07-28T09:41:14.063Z,100514.44
2023-07-28T09:43:42.418Z,100521.84
2023-07-28T09:46:11.748Z,100523.56
2023-07-28T09:48:40.404Z,100529.78
2023-07-28T09:51:17.963Z,100526.22
2023-07-28T09:53:54.059Z,100524.16
2023-07-28T09:56:23.285Z,100525.19
2023-07-28T09:58:52.358Z,100536.81
2023-07-28T10:01:23.154Z,100540.22
2023-07-28T10:03:51.733Z,100539.63
2023-07-28T10:06:20.948Z,100540.72
2023-07-28T10:08:48.299Z,100543.72
2023-07-28T10:11:17.721Z,100541.91
2023-07-28T10:13:47.529Z,100541.91
2023-07-28T10:16:18.465Z,100535.09
2023-07-28T10:18:55.717Z,100531.19
2023-07-28T10:21:28.237Z,100538.03
2023-07-28T10:23:57.337Z,100537.72
2023-07-28T10:26:38.427Z,100541.31
2023-07-28T10:29:16.490Z,100543.78
2023-07-28T10:31:55.072Z,100552.00
2023-07-28T10:34:23.538Z,100548.56
2023-07-28T10:37:00.546Z,100545.13
2023-07-28T10:39:28.116Z,100542.41
2023-07-28T10:42:06.477Z,100536.56
2023-07-28T10:44:34.386Z,100537.44
2023-07-28T10:47:02.496Z,100547.50
2023-07-28T10:49:30.609Z,100545.28
2023-07-28T10:51:57.700Z,100553.97
2023-07-28T10:54:24.973Z,100539.47
2023-07-28T10:56:52.273Z,100547.19
2023-07-28T10:59:19.426Z,100546.72
2023-07-28T11:01:46.662Z,100545.91
2023-07-28T11:04:16.385Z,100539.25
2023-07-28T11:06:49.783Z,100543.38
2023-07-28T11:09:21.090Z,100531.06
2023-07-28T11:11:48.362Z,100545.09
2023-07-28T11:14:17.212Z,100537.19
2023-07-28T11:16:46.124Z,100537.94
2023-07-28T11:19:18.772Z,100545.78
2023-07-28T11:21:52.529Z,100540.41
2023-07-28T11:24:21.430Z,100537.28
2023-07-28T11:26:48.645Z,100537.09
2023-07-28T11:29:17.460Z,100551.66
2023-07-28T11:31:44.653Z,100549.16
2023-07-28T11:34:16.143Z,100553.81
2023-07-28T11:36:43.697Z,100549.63
2023-07-28T11:39:11.832Z,100546.41
2023-07-28T11:41:40.928Z,100547.16
2023-07-28T11:44:09.715Z,100547.16
2023-07-28T11:46:42.180Z,100544.88
2023-07-28T11:49:19.226Z,100542.28
2023-07-28T11:51:49.555Z,100525.91
2023-07-28T11:54:20.512Z,100529.66
2023-07-28T11:56:48.504Z,100530.56
2023-07-28T11:59:17.633Z,100522.19
2023-07-28T12:07:08.486Z,100535.63
2023-07-28T12:09:50.369Z,100537.09
2023-07-28T12:13:31.426Z,100534.06
2023-07-28T12:20:49.294Z,100528.13
2023-07-28T12:25:56.600Z,100522.59
2023-07-28T12:28:23.730Z,100525.41
2023-07-28T12:30:53.203Z,100526.59
2023-07-28T12:33:22.513Z,100521.19
2023-07-28T12:35:51.388Z,100516.16
2023-07-28T12:48:20.993Z,100522.06
2023-07-28T12:50:48.597Z,100521.84
2023-07-28T12:53:20.216Z,100521.84
2023-07-28T13:03:23.144Z,100524.03
2023-07-28T13:05:50.385Z,100529.84
2023-07-28T13:08:17.716Z,100530.56
2023-07-28T13:13:15.091Z,100530.63
2023-07-28T13:15:42.768Z,100522.91
2023-07-28T13:18:09.747Z,100532.13
2023-07-28T13:20:36.683Z,100535.81
2023-07-28T13:23:03.840Z,100529.31
2023-07-28T13:25:31.046Z,100521.38
2023-07-28T13:27:58.125Z,100524.50
2023-07-28T13:30:26.335Z,100519.81
2023-07-28T13:32:55.805Z,100527.25
2023-07-28T13:35:23.898Z,100518.94
2023-07-28T13:37:50.838Z,100520.78
2023-07-28T13:40:18.438Z,100519.72
2023-07-28T13:42:46.305Z,100529.94
2023-07-28T13:45:14.108Z,100533.88
2023-07-28T13:47:41.251Z,100531.44
2023-07-28T13:50:08.860Z,100531.84
2023-07-28T13:52:37.414Z,100535.91
2023-07-28T13:57:36.462Z,100523.47
2023-07-28T14:00:04.596Z,100529.06
2023-07-28T14:02:32.182Z,100520.06
2023-07-28T14:04:59.384Z,100520.88
2023-07-28T14:07:27.022Z,100511.88
2023-07-28T14:09:55.827Z,100518.03
2023-07-28T14:12:23.426Z,100509.31
2023-07-28T14:14:53.327Z,100520.31
2023-07-28T14:17:20.196Z,100522.22
2023-07-28T14:19:47.621Z,100509.88
2023-07-28T14:22:15.063Z,100516.72
2023-07-28T14:24:42.669Z,100518.81
2023-07-28T14:27:09.731Z,100508.88
2023-07-28T14:29:36.745Z,100519.72
2023-07-28T14:32:04.057Z,100506.28
2023-07-28T14:34:31.236Z,100516.53
2023-07-28T14:36:58.215Z,100517.97
2023-07-28T14:39:25.291Z,100518.63
2023-07-28T14:41:52.229Z,100509.28
2023-07-28T14:44:18.989Z,100516.72
2023-07-28T14:46:47.555Z,100511.25
2023-07-28T14:49:14.833Z,100506.94
2023-07-28T14:51:42.458Z,100511.25
2023-07-28T14:54:09.680Z,100511.94
2023-07-28T14:56:37.863Z,100509.38
2023-07-28T14:59:04.770Z,100517.53
2023-07-28T15:01:34.129Z,100511.81
2023-07-28T15:04:03.561Z,100510.75
2023-07-28T15:06:32.270Z,100513.88
2023-07-28T15:08:59.176Z,100515.06
2023-07-28T15:11:26.779Z,100526.44
2023-07-28T15:13:53.838Z,100516.50
2023-07-28T15:16:20.860Z,100520.88
2023-07-28T15:18:48.416Z,100524.59
2023-07-28T15:21:16.484Z,100523.50
2023-07-28T15:23:44.118Z,100523.31
2023-07-28T15:26:11.165Z,100522.78
2023-07-28T15:28:39.002Z,100520.06
2023-07-28T15:31:06.747Z,100520.34
2023-07-28T15:33:33.756Z,100516.44
2023-07-28T15:36:00.714Z,100524.38
2023-07-28T15:38:27.447Z,100524.88
2023-07-28T15:40:58.559Z,100526.13
2023-07-28T15:43:26.788Z,100533.09
2023-07-28T15:45:56.308Z,100536.50
2023-07-28T15:48:24.110Z,100541.44
2023-07-28T15:50:53.116Z,100532.09
2023-07-28T15:53:20.425Z,100535.16
2023-07-28T15:55:47.629Z,100531.06
2023-07-28T15:58:14.858Z,100539.50
2023-07-28T16:01:09.731Z,100545.22
2023-07-28T16:03:39.653Z,100542.84
2023-07-28T16:06:07.295Z,100543.16
2023-07-28T16:08:35.158Z,100546.28
2023-07-28T16:11:02.275Z,100538.22
2023-07-28T16:13:29.368Z,100536.81
2023-07-28T16:15:56.666Z,100537.19
2023-07-28T16:18:24.418Z,100535.00
2023-07-28T16:20:52.648Z,100531.19
2023-07-28T16:23:19.801Z,100530.06
2023-07-28T16:25:48.867Z,100530.63
2023-07-28T16:28:16.707Z,100530.44
2023-07-28T16:30:47.014Z,100527.38
2023-07-28T16:33:14.216Z,100526.72
2023-07-28T16:35:41.760Z,100524.97
2023-07-28T16:38:08.980Z,100521.53
2023-07-28T16:40:36.146Z,100523.13
2023-07-28T16:43:02.887Z,100526.16
2023-07-28T16:45:30.444Z,100523.44
2023-07-28T16:47:58.197Z,100526.06
2023-07-28T16:50:25.402Z,100513.72
2023-07-28T16:52:52.873Z,100507.34
2023-07-28T16:55:20.180Z,100510.13
2023-07-28T16:57:47.984Z,100504.25
2023-07-28T17:00:15.395Z,100500.69
2023-07-28T17:02:42.648Z,100498.44
2023-07-28T17:05:09.897Z,100506.59
2023-07-28T17:07:37.121Z,100488.00
2023-07-28T17:10:05.026Z,100493.13
2023-07-28T17:12:32.293Z,100505.22
2023-07-28T17:14:59.439Z,100506.66
2023-07-28T17:17:27.613Z,100505.59
2023-07-28T17:19:54.649Z,100506.69
2023-07-28T17:22:22.390Z,100503.28
2023-07-28T17:24:51.405Z,100506.38
2023-07-28T17:27:18.594Z,100507.91
2023-07-28T17:29:46.084Z,100508.63
2023-07-28T17:32:13.023Z,100499.03
2023-07-28T17:34:41.084Z,100507.34
2023-07-28T17:37:09.200Z,100513.50
2023-07-28T17:39:36.853Z,100505.72
2023-07-28T17:42:04.264Z,100506.13
2023-07-28T17:44:31.222Z,100507.34
2023-07-28T17:46:58.349Z,100511.94
2023-07-28T17:49:25.423Z,100510.63
2023-07-28T17:51:52.575Z,100513.28
2023-07-28T17:54:19.706Z,100518.41
2023-07-28T17:56:47.380Z,100523.75
2023-07-28T17:59:14.358Z,100517.84
2023-07-28T18:01:41.433Z,100516.53
2023-07-28T18:04:08.584Z,100519.97
2023-07-28T18:06:35.323Z,100519.78
2023-07-28T18:09:04.154Z,100519.31
2023-07-28T18:11:31.349Z,100529.28
2023-07-28T18:13:58.628Z,100522.47
2023-07-28T18:16:27.049Z,100520.94
2023-07-28T18:18:54.230Z,100515.81
2023-07-28T18:21:22.813Z,100523.78
2023-07-28T18:23:49.725Z,100520.09
2023-07-28T18:26:16.603Z,100524.16
2023-07-28T18:28:43.846Z,100522.47
2023-07-28T18:31:10.958Z,100532.91
2023-07-28T18:33:38.048Z,100527.59
2023-07-28T18:36:05.344Z,100525.88
2023-07-28T18:38:32.736Z,100532.13
2023-07-28T18:40:59.612Z,100533.19
2023-07-28T18:43:28.549Z,100536.03
2023-07-28T18:45:56.064Z,100538.97
2023-07-28T18:48:23.360Z,100533.09
2023-07-28T18:50:50.890Z,100529.09
2023-07-28T18:53:18.319Z,100525.16
2023-07-28T18:55:45.863Z,100533.59
2023-07-28T18:58:13.656Z,100522.66
2023-07-28T19:00:41.000Z,100525.03
2023-07-28T19:03:08.439Z,100521.06
2023-07-28T19:05:36.309Z,100527.66
2023-07-28T19:08:03.319Z,100534.28
2023-07-28T19:10:30.228Z,100529.69
2023-07-28T19:12:57.256Z,100528.16
2023-07-28T19:15:44.728Z,100534.00
2023-07-28T19:18:11.454Z,100543.94
2023-07-28T19:20:38.587Z,100539.03
2023-07-28T19:23:06.296Z,100545.50
2023-07-28T19:25:34.713Z,100542.22
2023-07-28T19:28:02.541Z,100542.34
2023-07-28T19:30:29.716Z,100544.13
2023-07-28T19:32:56.932Z,100544.31
2023-07-28T19:35:25.376Z,100544.31
2023-07-28T19:37:52.626Z,100536.50
2023-07-28T19:40:19.542Z,100526.81
2023-07-28T19:42:47.164Z,100529.47
2023-07-28T19:45:14.232Z,100528.72
2023-07-28T19:47:41.728Z,100535.72
2023-07-28T19:50:22.593Z,100539.34
2023-07-28T19:52:58.491Z,100547.53
2023-07-28T19:55:25.585Z,100545.00
2023-07-28T19:57:52.674Z,100546.00
2023-07-28T20:00:19.542Z,100542.59
2023-07-28T20:02:46.981Z,100547.22
2023-07-28T20:05:15.749Z,100547.38
2023-07-28T20:07:44.202Z,100544.91
2023-07-28T20:10:11.719Z,100541.47
2023-07-28T20:12:38.764Z,100540.69
2023-07-28T20:15:07.342Z,100539.34
2023-07-28T20:17:34.410Z,100543.44
2023-07-28T20:20:01.669Z,100545.28
2023-07-28T20:22:28.547Z,100550.78
2023-07-28T20:24:55.645Z,100553.53
2023-07-28T20:27:23.678Z,100553.59
2023-07-28T20:29:51.197Z,100552.81
2023-07-28T20:32:18.008Z,100554.75
2023-07-28T20:34:45.600Z,100551.25
2023-07-28T20:37:13.368Z,100544.31
2023-07-28T20:39:40.312Z,100543.56
2023-07-28T20:42:07.493Z,100542.69
2023-07-28T20:44:34.529Z,100548.16
2023-07-28T20:47:01.445Z,100544.72
2023-07-28T20:49:28.449Z,100544.72
2023-07-28T20:51:55.522Z,100549.25
2023-07-28T20:54:22.388Z,100550.19
2023-07-28T20:56:49.188Z,100548.50
2023-07-28T20:59:16.313Z,100554.78
2023-07-28T21:01:43.335Z,100548.78
2023-07-28T21:04:10.849Z,100546.94
2023-07-28T21:06:38.094Z,100558.47
2023-07-28T21:09:06.629Z,100559.41
2023-07-28T21:11:33.453Z,100565.66
2023-07-28T21:14:01.724Z,100563.88
2023-07-28T21:16:28.545Z,100560.25
2023-07-28T21:18:55.503Z,100554.25
2023-07-28T21:21:23.853Z,100554.25
2023-07-28T21:23:52.278Z,100554.44
2023-07-28T21:26:19.081Z,100552.56
2023-07-28T21:28:45.918Z,100563.19
2023-07-28T21:31:13.382Z,100567.63
2023-07-28T21:33:40.695Z,100567.69
2023-07-28T21:36:07.771Z,100562.47
2023-07-28T21:38:35.048Z,100572.22
2023-07-28T21:41:01.950Z,100562.53
2023-07-28T21:43:28.956Z,100571.47
2023-07-28T21:45:56.879Z,100573.25
2023-07-28T21:48:24.008Z,100578.56
2023-07-28T21:50:50.959Z,100572.38
2023-07-28T21:53:17.914Z,100571.53
2023-07-28T21:55:44.847Z,100565.34
2023-07-28T21:58:12.120Z,100554.75
2023-07-28T22:00:38.937Z,100544.16
2023-07-28T22:03:06.655Z,100545.25
2023-07-28T22:05:35.430Z,100545.41
2023-07-28T22:08:13.846Z,100545.66
2023-07-28T22:10:41.764Z,100550.25
2023-07-28T22:13:09.681Z,100538.25
2023-07-28T22:15:36.436Z,100549.34
2023-07-28T22:18:04.970Z,100555.88
2023-07-28T22:20:33.998Z,100553.38
2023-07-28T22:23:00.826Z,100557.00
2023-07-28T22:25:29.168Z,100556.13
2023-07-28T22:27:57.878Z,100565.13
2023-07-28T22:30:25.409Z,100559.13
2023-07-28T22:32:52.489Z,100547.91
2023-07-28T22:35:19.513Z,100552.41
2023-07-28T22:37:46.090Z,100550.88
2023-07-28T22:40:13.315Z,100551.00
2023-07-28T22:42:40.641Z,100551.16
2023-07-28T22:45:07.764Z,100546.00
2023-07-28T22:47:35.384Z,100541.81
2023-07-28T22:50:02.919Z,100554.25
2023-07-28T22:52:31.714Z,100548.19
2023-07-28T22:55:10.255Z,100543.06
2023-07-28T22:57:42.024Z,100532.66
2023-07-28T23:00:11.817Z,100538.50
2023-07-28T23:02:40.716Z,100542.22
2023-07-28T23:05:10.599Z,100537.84
2023-07-28T23:07:38.930Z,100543.31
2023-07-28T23:10:07.412Z,100539.94
2023-07-28T23:12:36.466Z,100531.38
2023-07-28T23:15:05.086Z,100525.28
2023-07-28T23:17:34.006Z,100526.28
2023-07-28T23:20:01.096Z,100520.38
2023-07-28T23:22:28.249Z,100513.50
2023-07-28T23:24:55.532Z,100507.50
2023-07-28T23:27:23.046Z,100506.63
2023-07-28T23:29:51.118Z,100512.03
2023-07-28T23:32:18.183Z,100504.09
2023-07-28T23:34:45.246Z,100493.63
2023-07-28T23:37:12.632Z,100489.34
2023-07-28T23:39:39.822Z,100491.19
2023-07-28T23:42:07.798Z,100489.47
2023-07-28T23:44:37.522Z,100496.63
2023-07-28T23:47:06.527Z,100496.63
2023-07-28T23:49:37.106Z,100507.34
2023-07-28T23:52:05.886Z,100496.91
2023-07-28T23:54:34.467Z,100499.69
2023-07-28T23:57:01.538Z,100494.41
2023-07-28T23:59:29.732Z,100499.69
